Time;durP1;ratioP1;P1;durP2;ratioP2;P2;SDS_P1;SDS_P2;PMS_P1;PMS_P2;Temp;Humidity;BMP_temperature;BMP_pressure;BME280_temperature;BME280_humidity;BME280_pressure;Samples;Min_cycle;Max_cycle;Signal;HPM_P1;HPM_P2
2021/05/15 00:01:12;;;;;;;11.35;5.07;;;14.10;76.00;;;;;;5016943;28;20030;-74
2021/05/15 00:03:38;;;;;;;10.25;5.80;;;14.10;76.10;;;;;;5012435;28;20026;-74
2021/05/15 00:06:04;;;;;;;9.85;4.57;;;14.10;76.20;;;;;;5010852;28;20496;-74
2021/05/15 00:08:30;;;;;;;11.57;5.00;;;14.00;76.30;;;;;;5011125;28;20025;-74
2021/05/15 00:10:56;;;;;;;8.07;4.30;;;14.00;76.30;;;;;;5012185;28;20591;-74
2021/05/15 00:13:23;;;;;;;11.90;5.93;;;14.00;76.50;;;;;;5011174;28;20030;-74
2021/05/15 00:15:49;;;;;;;9.23;4.68;;;14.00;76.50;;;;;;5012077;28;20022;-75
2021/05/15 00:18:15;;;;;;;9.88;4.82;;;14.00;76.40;;;;;;5011555;28;20033;-75
2021/05/15 00:20:40;;;;;;;9.35;4.78;;;14.00;76.30;;;;;;5012354;28;20041;-75
2021/05/15 00:23:06;;;;;;;8.63;5.15;;;14.00;76.30;;;;;;5010862;28;20455;-75
2021/05/15 00:25:32;;;;;;;12.70;5.45;;;14.00;76.50;;;;;;5011491;28;20505;-74
2021/05/15 00:27:59;;;;;;;9.40;4.65;;;14.00;76.40;;;;;;5012028;28;20033;-74
2021/05/15 00:30:24;;;;;;;9.88;5.40;;;14.00;76.30;;;;;;5011404;28;20022;-74
2021/05/15 00:32:50;;;;;;;10.60;5.50;;;14.00;76.10;;;;;;5011843;28;20030;-74
2021/05/15 00:35:15;;;;;;;10.90;5.10;;;14.00;76.20;;;;;;5011254;28;20038;-74
2021/05/15 00:37:41;;;;;;;10.63;5.65;;;14.10;76.10;;;;;;5011826;28;20117;-75
2021/05/15 00:40:09;;;;;;;11.95;6.10;;;14.00;76.10;;;;;;5011894;28;20034;-75
2021/05/15 00:42:35;;;;;;;14.32;6.72;;;14.00;76.10;;;;;;5010815;28;20177;-74
2021/05/15 00:45:02;;;;;;;13.05;5.68;;;14.00;76.20;;;;;;5010825;28;20120;-74
2021/05/15 00:47:28;;;;;;;11.27;6.18;;;14.00;76.20;;;;;;5011339;28;20026;-75
2021/05/15 00:49:53;;;;;;;15.73;6.78;;;14.00;76.20;;;;;;5011740;28;20028;-75
2021/05/15 00:52:20;;;;;;;13.15;6.55;;;14.00;76.30;;;;;;5009748;28;20065;-74
2021/05/15 00:54:47;;;;;;;11.82;5.80;;;14.00;76.50;;;;;;5010471;28;20145;-74
2021/05/15 00:57:13;;;;;;;12.13;5.65;;;13.90;76.40;;;;;;5011468;28;20072;-75
2021/05/15 00:59:40;;;;;;;9.90;5.18;;;13.90;76.40;;;;;;5011112;28;20447;-74
2021/05/15 01:02:10;;;;;;;10.40;5.57;;;14.00;76.50;;;;;;5011745;28;20136;-74
2021/05/15 01:04:37;;;;;;;13.30;6.20;;;13.90;76.50;;;;;;5010897;28;20029;-75
2021/05/15 01:07:05;;;;;;;13.05;5.97;;;13.90;76.60;;;;;;5011610;28;20022;-75
2021/05/15 01:09:31;;;;;;;12.38;5.60;;;13.90;76.80;;;;;;5010988;28;20075;-74
2021/05/15 01:11:57;;;;;;;10.95;6.05;;;13.80;76.80;;;;;;5011487;28;20101;-75
2021/05/15 01:14:22;;;;;;;9.48;5.43;;;13.80;76.70;;;;;;5010947;28;20032;-75
2021/05/15 01:16:49;;;;;;;12.30;5.80;;;13.80;76.80;;;;;;5011634;28;20022;-75
2021/05/15 01:19:16;;;;;;;10.93;5.93;;;13.80;76.90;;;;;;5012322;28;20512;-74
2021/05/15 01:21:42;;;;;;;10.88;5.68;;;13.80;76.90;;;;;;5014485;28;20030;-74
2021/05/15 01:24:09;;;;;;;13.40;6.28;;;13.80;77.00;;;;;;5015362;28;20390;-74
2021/05/15 01:26:35;;;;;;;12.15;6.55;;;13.80;77.10;;;;;;5014020;28;20378;-75
2021/05/15 01:29:06;;;;;;;9.23;5.07;;;13.70;77.10;;;;;;5014864;28;20033;-75
2021/05/15 01:31:32;;;;;;;;;;;13.80;77.20;;;;;;5014781;28;20030;-75
2021/05/15 01:33:58;;;;;;;12.25;5.25;;;13.70;77.20;;;;;;5014915;28;19909;-75
2021/05/15 01:36:26;;;;;;;12.32;5.30;;;13.70;77.30;;;;;;5012887;28;20022;-75
2021/05/15 01:38:52;;;;;;;9.52;5.22;;;13.70;77.20;;;;;;5014731;28;20018;-74
2021/05/15 01:41:19;;;;;;;11.75;6.05;;;13.70;77.40;;;;;;5014409;28;20076;-75
2021/05/15 01:43:45;;;;;;;9.82;5.47;;;13.70;77.60;;;;;;5014493;28;20083;-75
2021/05/15 01:46:12;;;;;;;13.23;5.90;;;13.70;77.50;;;;;;5014650;28;20040;-73
2021/05/15 01:48:38;;;;;;;11.35;5.78;;;13.60;77.40;;;;;;5013681;28;20044;-74
2021/05/15 01:51:05;;;;;;;11.23;6.30;;;13.70;77.30;;;;;;5014513;28;20467;-75
2021/05/15 01:53:34;;;;;;;12.30;5.38;;;13.70;77.40;;;;;;5012564;28;20029;-75
2021/05/15 01:56:00;;;;;;;12.63;6.72;;;13.70;77.40;;;;;;5014484;28;20356;-75
2021/05/15 01:58:27;;;;;;;9.27;5.38;;;13.70;77.50;;;;;;5013847;28;20533;-74
2021/05/15 02:00:53;;;;;;;11.20;5.85;;;13.60;77.40;;;;;;5014295;28;20058;-74
2021/05/15 02:03:22;;;;;;;13.38;7.15;;;13.60;77.50;;;;;;5014405;28;20442;-75
2021/05/15 02:05:49;;;;;;;11.82;6.88;;;13.60;77.60;;;;;;5012943;28;20121;-74
2021/05/15 02:08:15;;;;;;;12.73;6.45;;;13.50;77.60;;;;;;5013012;28;20022;-75
2021/05/15 02:10:41;;;;;;;10.98;5.93;;;13.50;77.70;;;;;;5012241;28;20026;-74
2021/05/15 02:13:06;;;;;;;11.60;6.30;;;13.50;77.80;;;;;;5014169;28;20029;-75
2021/05/15 02:15:32;;;;;;;10.95;5.93;;;13.50;77.80;;;;;;5012204;28;20037;-75
2021/05/15 02:17:58;;;;;;;13.00;6.60;;;13.50;77.90;;;;;;5012693;28;20088;-74
2021/05/15 02:20:27;;;;;;;13.30;6.93;;;13.50;78.00;;;;;;5012117;28;20064;-74
2021/05/15 02:22:52;;;;;;;14.05;6.53;;;13.50;78.00;;;;;;5012527;28;20121;-75
2021/05/15 02:25:19;;;;;;;13.98;7.18;;;13.50;78.00;;;;;;5013584;28;20105;-74
2021/05/15 02:27:45;;;;;;;12.52;6.32;;;13.50;78.00;;;;;;5012009;28;20041;-75
2021/05/15 02:30:11;;;;;;;12.45;5.95;;;13.40;77.90;;;;;;5011854;28;20033;-75
2021/05/15 02:32:37;;;;;;;11.55;5.85;;;13.40;78.00;;;;;;5013050;28;20478;-75
2021/05/15 02:35:04;;;;;;;12.23;6.10;;;13.40;78.20;;;;;;5013753;28;20057;-75
2021/05/15 02:37:29;;;;;;;11.45;6.13;;;13.40;78.30;;;;;;5013100;28;20057;-74
2021/05/15 02:39:55;;;;;;;13.75;5.88;;;13.40;78.40;;;;;;5012299;28;20057;-75
2021/05/15 02:42:21;;;;;;;12.18;6.25;;;13.30;78.40;;;;;;5011973;28;20049;-74
2021/05/15 02:44:46;;;;;;;11.55;5.90;;;13.30;78.50;;;;;;5012659;28;20026;-75
2021/05/15 02:47:12;;;;;;;12.93;5.68;;;13.30;78.50;;;;;;5013481;28;20463;-75
2021/05/15 02:49:38;;;;;;;11.20;5.80;;;13.30;78.60;;;;;;5011571;28;20022;-75
2021/05/15 02:52:03;;;;;;;15.55;7.78;;;13.30;78.70;;;;;;5013374;28;20029;-75
2021/05/15 02:54:29;;;;;;;15.95;6.50;;;13.30;78.80;;;;;;5012380;28;20137;-75
2021/05/15 02:56:55;;;;;;;15.20;6.57;;;13.30;79.40;;;;;;5013331;28;20026;-75
2021/05/15 02:59:21;;;;;;;12.65;6.22;;;13.30;78.80;;;;;;5012005;28;20033;-75
2021/05/15 03:01:46;;;;;;;12.52;6.40;;;13.20;78.80;;;;;;5011345;28;20022;-74
2021/05/15 03:04:12;;;;;;;16.77;7.35;;;13.20;78.70;;;;;;5012935;28;20063;-73
2021/05/15 03:06:37;;;;;;;13.05;6.45;;;13.30;78.70;;;;;;5012484;28;20048;-74
2021/05/15 03:09:03;;;;;;;12.73;6.93;;;13.30;78.60;;;;;;5011708;28;20022;-74
2021/05/15 03:11:29;;;;;;;12.27;7.10;;;13.30;78.70;;;;;;5011113;28;20488;-75
2021/05/15 03:13:54;;;;;;;12.63;6.38;;;13.20;78.60;;;;;;5012974;28;20034;-74
2021/05/15 03:16:20;;;;;;;12.13;6.45;;;13.20;78.50;;;;;;5012618;28;20080;-75
2021/05/15 03:18:46;;;;;;;13.43;6.80;;;13.20;78.50;;;;;;5012077;28;20025;-74
2021/05/15 03:21:11;;;;;;;13.40;6.45;;;13.20;78.40;;;;;;5012948;28;20026;-74
2021/05/15 03:23:37;;;;;;;13.75;7.25;;;13.20;78.40;;;;;;5012078;28;20030;-75
2021/05/15 03:26:03;;;;;;;16.40;7.53;;;13.20;78.50;;;;;;5012563;28;20081;-75
2021/05/15 03:28:28;;;;;;;16.60;7.68;;;13.20;78.50;;;;;;5012274;28;20030;-74
2021/05/15 03:30:54;;;;;;;13.77;7.45;;;13.20;78.50;;;;;;5013038;28;20029;-74
2021/05/15 03:33:20;;;;;;;14.50;7.95;;;13.20;78.50;;;;;;5012684;28;20025;-74
2021/05/15 03:35:45;;;;;;;14.48;7.95;;;13.20;78.50;;;;;;5012002;28;20042;-74
2021/05/15 03:38:11;;;;;;;17.85;7.53;;;13.10;78.50;;;;;;5012583;28;20112;-74
2021/05/15 03:40:37;;;;;;;16.50;7.55;;;13.20;78.50;;;;;;5011915;28;20026;-73
2021/05/15 03:43:03;;;;;;;15.27;7.63;;;13.10;78.60;;;;;;5012155;28;20046;-74
2021/05/15 03:45:30;;;;;;;16.30;7.72;;;13.20;78.70;;;;;;5010725;28;20022;-74
2021/05/15 03:47:56;;;;;;;14.88;7.28;;;13.20;78.70;;;;;;5012506;28;20038;-74
2021/05/15 03:50:22;;;;;;;15.85;7.55;;;13.20;78.80;;;;;;5012404;28;20036;-74
2021/05/15 03:52:51;;;;;;;15.85;7.72;;;13.10;78.80;;;;;;5011733;28;20033;-74
2021/05/15 03:55:17;;;;;;;16.08;8.18;;;13.20;78.90;;;;;;5012518;28;20160;-74
2021/05/15 03:57:42;;;;;;;15.63;7.38;;;13.20;78.90;;;;;;5011735;28;20425;-73
2021/05/15 04:00:09;;;;;;;14.25;6.88;;;13.20;78.90;;;;;;5011072;28;20041;-75
2021/05/15 04:02:38;;;;;;;12.43;6.55;;;13.20;78.80;;;;;;5011807;28;20101;-75
2021/05/15 04:05:06;;;;;;;13.70;7.65;;;13.20;78.90;;;;;;5011097;28;20047;-75
2021/05/15 04:07:34;;;;;;;12.07;6.57;;;13.20;79.10;;;;;;5010371;28;20489;-76
2021/05/15 04:10:00;;;;;;;14.68;6.10;;;13.10;79.10;;;;;;5012314;28;20026;-74
2021/05/15 04:12:33;;;;;;;15.32;7.65;;;13.10;79.20;;;;;;5012094;28;20038;-75
2021/05/15 04:15:07;;;;;;;15.75;7.35;;;13.10;79.20;;;;;;5011033;28;20048;-75
2021/05/15 04:17:33;;;;;;;15.90;6.97;;;13.20;79.30;;;;;;5010350;28;20018;-75
2021/05/15 04:20:00;;;;;;;16.15;7.65;;;13.20;79.30;;;;;;5012383;28;20041;-74
2021/05/15 04:22:27;;;;;;;15.20;6.72;;;13.20;79.30;;;;;;5010490;28;20064;-75
2021/05/15 04:24:53;;;;;;;15.05;7.03;;;13.10;79.20;;;;;;5010303;28;20026;-74
2021/05/15 04:27:19;;;;;;;14.63;7.15;;;13.20;79.20;;;;;;5012147;28;20022;-74
2021/05/15 04:29:46;;;;;;;13.73;6.93;;;13.30;79.20;;;;;;5011200;28;20026;-74
2021/05/15 04:32:12;;;;;;;17.08;7.03;;;13.20;79.10;;;;;;5011620;28;20466;-73
2021/05/15 04:34:38;;;;;;;17.75;7.38;;;13.30;79.20;;;;;;5011686;28;20041;-75
2021/05/15 04:37:04;;;;;;;13.10;6.95;;;13.20;79.10;;;;;;5011983;28;20116;-74
2021/05/15 04:39:32;;;;;;;13.20;6.43;;;13.30;79.20;;;;;;5011898;28;20022;-75
2021/05/15 04:41:58;;;;;;;12.80;6.68;;;13.30;79.30;;;;;;5011459;28;20048;-73
2021/05/15 04:44:24;;;;;;;13.00;6.90;;;13.30;79.30;;;;;;5010659;28;20026;-74
2021/05/15 04:46:51;;;;;;;16.27;8.45;;;13.30;79.40;;;;;;5024901;28;20080;-75
2021/05/15 04:49:18;;;;;;;16.45;8.38;;;13.30;79.40;;;;;;5030025;28;20033;-75
2021/05/15 04:51:44;;;;;;;16.77;8.40;;;13.30;79.40;;;;;;5030450;28;20034;-75
2021/05/15 04:54:10;;;;;;;16.05;8.02;;;13.30;80.00;;;;;;5033820;28;20484;-74
2021/05/15 04:56:36;;;;;;;16.80;8.18;;;13.40;79.30;;;;;;5033472;28;20029;-75
2021/05/15 04:59:02;;;;;;;19.00;9.00;;;13.40;79.30;;;;;;5035310;28;20022;-75
2021/05/15 05:01:28;;;;;;;15.80;8.70;;;13.40;79.20;;;;;;5034087;28;20018;-75
2021/05/15 05:03:53;;;;;;;14.98;7.47;;;13.40;79.20;;;;;;5034632;28;20033;-74
2021/05/15 05:06:19;;;;;;;15.77;8.15;;;13.40;79.20;;;;;;5035128;28;20022;-75
2021/05/15 05:08:45;;;;;;;20.42;8.45;;;13.40;79.20;;;;;;5033278;28;20021;-74
2021/05/15 05:11:10;;;;;;;15.85;8.02;;;13.40;79.30;;;;;;5033829;28;20104;-75
2021/05/15 05:13:36;;;;;;;15.15;8.20;;;13.50;79.40;;;;;;5033995;28;20473;-75
2021/05/15 05:16:02;;;;;;;21.73;9.75;;;13.50;79.40;;;;;;5035017;28;20071;-75
2021/05/15 05:18:28;;;;;;;19.85;9.05;;;13.50;79.50;;;;;;5035027;28;20030;-75
2021/05/15 05:20:56;;;;;;;17.33;8.68;;;13.50;79.50;;;;;;5034403;28;20028;-73
2021/05/15 05:23:22;;;;;;;18.67;8.60;;;13.50;79.60;;;;;;5034989;28;20026;-75
2021/05/15 05:25:48;;;;;;;17.08;8.85;;;13.50;80.30;;;;;;5033957;28;20393;-75
2021/05/15 05:28:16;;;;;;;20.20;9.68;;;13.50;79.70;;;;;;5033740;28;20014;-74
2021/05/15 05:30:42;;;;;;;18.42;9.30;;;13.50;79.70;;;;;;5032809;28;20123;-74
2021/05/15 05:33:08;;;;;;;19.20;9.07;;;13.50;79.80;;;;;;5033028;28;20394;-74
2021/05/15 05:35:35;;;;;;;15.30;8.48;;;13.50;79.90;;;;;;5034542;28;20407;-76
2021/05/15 05:38:02;;;;;;;26.35;10.80;;;13.60;79.90;;;;;;5034050;28;20025;-75
2021/05/15 05:40:27;;;;;;;19.73;10.57;;;13.60;79.80;;;;;;5034523;28;20034;-75
2021/05/15 05:42:53;;;;;;;17.75;9.32;;;13.60;79.80;;;;;;5032109;28;20060;-76
2021/05/15 05:45:19;;;;;;;20.95;10.18;;;13.60;79.80;;;;;;5034184;28;20032;-76
2021/05/15 05:47:44;;;;;;;21.38;9.30;;;13.70;79.90;;;;;;5033510;28;20390;-75
2021/05/15 05:50:11;;;;;;;21.50;10.00;;;13.70;79.90;;;;;;5034116;28;20052;-75
2021/05/15 05:52:37;;;;;;;20.52;10.65;;;13.70;79.90;;;;;;5034229;28;20087;-75
2021/05/15 05:55:06;;;;;;;15.15;7.72;;;13.70;79.80;;;;;;5034235;28;20026;-75
2021/05/15 05:57:31;;;;;;;22.35;11.02;;;13.80;80.50;;;;;;5034204;28;20136;-76
2021/05/15 05:59:57;;;;;;;19.42;10.10;;;13.80;80.00;;;;;;5033352;28;20030;-76
2021/05/15 06:02:23;;;;;;;22.08;11.38;;;13.80;79.90;;;;;;5032896;28;20026;-76
2021/05/15 06:04:48;;;;;;;22.85;10.93;;;13.80;80.00;;;;;;5032330;28;20026;-76
2021/05/15 06:07:14;;;;;;;21.15;10.98;;;13.90;80.10;;;;;;5032756;28;20029;-75
2021/05/15 06:09:41;;;;;;;19.05;10.15;;;13.90;80.10;;;;;;5033430;28;20022;-76
2021/05/15 06:12:07;;;;;;;22.38;11.07;;;13.90;80.20;;;;;;5032556;28;20021;-76
2021/05/15 06:14:34;;;;;;;22.52;11.07;;;13.90;80.20;;;;;;5034014;28;20063;-76
2021/05/15 06:16:59;;;;;;;22.02;11.13;;;14.00;80.30;;;;;;5033251;28;20061;-76
2021/05/15 06:19:25;;;;;;;19.60;10.68;;;14.00;80.30;;;;;;5033614;28;20061;-75
2021/05/15 06:21:50;;;;;;;24.27;10.93;;;14.00;80.40;;;;;;5032825;28;20541;-76
2021/05/15 06:24:16;;;;;;;22.67;11.23;;;14.00;80.60;;;;;;5033766;28;20051;-76
2021/05/15 06:26:42;;;;;;;21.55;10.23;;;14.00;80.50;;;;;;5031812;28;20021;-76
2021/05/15 06:29:08;;;;;;;24.55;11.63;;;14.00;81.20;;;;;;5033441;28;20495;-76
2021/05/15 06:31:33;;;;;;;25.27;11.63;;;14.10;80.70;;;;;;5033364;28;20029;-75
2021/05/15 06:33:59;;;;;;;23.05;11.60;;;14.00;80.60;;;;;;5032942;28;20032;-76
2021/05/15 06:36:24;;;;;;;23.88;10.65;;;14.00;80.70;;;;;;5033547;28;20030;-76
2021/05/15 06:38:51;;;;;;;24.92;10.57;;;14.00;80.60;;;;;;5032772;28;20044;-75
2021/05/15 06:41:17;;;;;;;24.55;12.25;;;14.00;80.90;;;;;;5033496;28;20030;-75
2021/05/15 06:43:43;;;;;;;21.48;12.35;;;14.00;81.20;;;;;;5032475;28;20362;-75
2021/05/15 06:46:08;;;;;;;20.80;11.48;;;14.00;81.30;;;;;;5033314;28;20040;-75
2021/05/15 06:48:34;;;;;;;24.35;12.88;;;14.00;81.40;;;;;;5033335;28;20028;-75
2021/05/15 06:50:59;;;;;;;25.05;12.90;;;14.00;81.40;;;;;;5032590;28;20061;-76
2021/05/15 06:53:25;;;;;;;30.48;14.95;;;14.00;81.50;;;;;;5033268;28;20113;-75
2021/05/15 06:55:51;;;;;;;34.75;16.02;;;13.90;81.60;;;;;;5032546;28;20420;-75
2021/05/15 06:58:16;;;;;;;33.35;16.17;;;13.80;81.80;;;;;;5032793;28;20021;-76
2021/05/15 07:00:42;;;;;;;37.47;16.80;;;13.70;81.80;;;;;;5033097;28;20105;-75
2021/05/15 07:03:07;;;;;;;31.05;15.00;;;13.70;82.00;;;;;;5032437;28;20083;-75
2021/05/15 07:05:34;;;;;;;35.75;16.83;;;13.70;82.10;;;;;;5032661;28;20075;-75
2021/05/15 07:08:00;;;;;;;34.38;15.25;;;13.70;82.10;;;;;;5032373;28;20500;-76
2021/05/15 07:10:26;;;;;;;31.27;15.70;;;13.80;81.90;;;;;;5032944;28;20036;-75
2021/05/15 07:12:52;;;;;;;30.63;14.57;;;13.80;81.20;;;;;;5032133;28;20029;-75
2021/05/15 07:15:19;;;;;;;34.22;15.05;;;13.80;81.20;;;;;;5033115;28;20087;-75
2021/05/15 07:17:45;;;;;;;32.45;14.80;;;13.80;81.10;;;;;;5031979;28;20049;-77
2021/05/15 07:20:11;;;;;;;32.17;14.55;;;13.80;81.10;;;;;;5032951;28;20052;-76
2021/05/15 07:22:38;;;;;;;31.13;15.45;;;13.90;81.10;;;;;;5032745;28;20040;-76
2021/05/15 07:25:05;;;;;;;35.80;16.52;;;13.90;80.90;;;;;;5030592;28;20056;-76
2021/05/15 07:27:30;;;;;;;35.50;17.00;;;14.10;80.90;;;;;;5032635;28;20022;-75
2021/05/15 07:29:56;;;;;;;30.50;14.60;;;14.20;80.60;;;;;;5031956;28;20040;-75
2021/05/15 07:32:23;;;;;;;33.67;14.98;;;14.20;80.00;;;;;;5032276;28;20366;-76
2021/05/15 07:34:49;;;;;;;28.92;13.02;;;14.30;80.00;;;;;;5031889;28;20385;-76
2021/05/15 07:37:15;;;;;;;30.25;14.38;;;14.30;79.80;;;;;;5031092;28;20025;-76
2021/05/15 07:39:42;;;;;;;31.65;14.60;;;14.30;79.50;;;;;;5032120;28;20424;-76
2021/05/15 07:42:08;;;;;;;30.30;15.68;;;14.30;79.70;;;;;;5031721;28;20050;-76
2021/05/15 07:44:34;;;;;;;27.77;12.93;;;14.30;79.30;;;;;;5031058;28;20072;-76
2021/05/15 07:46:59;;;;;;;30.85;14.05;;;14.30;79.90;;;;;;5013992;28;20021;-76
2021/05/15 07:49:25;;;;;;;25.90;12.80;;;14.40;79.20;;;;;;5030929;28;20477;-75
2021/05/15 07:51:53;;;;;;;26.48;13.02;;;14.40;79.00;;;;;;5031305;28;20036;-76
2021/05/15 07:54:19;;;;;;;25.38;12.85;;;14.50;78.50;;;;;;5032140;28;20029;-75
2021/05/15 07:56:45;;;;;;;30.08;14.45;;;14.50;78.20;;;;;;5032166;28;20025;-75
2021/05/15 07:59:11;;;;;;;25.75;12.63;;;14.50;77.80;;;;;;5030545;28;20025;-76
2021/05/15 08:01:36;;;;;;;25.92;12.48;;;14.50;77.90;;;;;;5032077;28;20025;-77
2021/05/15 08:04:02;;;;;;;23.38;12.55;;;14.60;77.60;;;;;;5030981;28;20029;-76
2021/05/15 08:06:28;;;;;;;28.10;13.27;;;14.50;77.50;;;;;;5030671;28;20025;-74
2021/05/15 08:08:53;;;;;;;23.92;13.65;;;14.50;77.50;;;;;;5028462;28;20032;-75
2021/05/15 08:11:19;;;;;;;26.17;13.68;;;14.50;77.20;;;;;;5018477;28;20030;-75
2021/05/15 08:13:45;;;;;;;25.30;12.38;;;14.50;77.50;;;;;;5021095;28;20108;-75
2021/05/15 08:16:13;;;;;;;21.92;11.07;;;14.50;77.60;;;;;;5030763;28;20033;-75
2021/05/15 08:18:39;;;;;;;22.83;12.80;;;14.50;77.40;;;;;;5031819;28;20021;-74
2021/05/15 08:21:05;;;;;;;26.00;13.65;;;14.50;77.00;;;;;;5031257;28;20017;-73
2021/05/15 08:23:35;;;;;;;22.58;11.85;;;14.50;76.90;;;;;;5030528;28;20421;-74
2021/05/15 08:26:06;;;;;;;27.30;14.45;;;14.40;77.10;;;;;;5035770;28;20118;-75
2021/05/15 08:28:31;;;;;;;27.10;13.50;;;14.50;77.20;;;;;;5028180;28;20018;-75
2021/05/15 08:30:57;;;;;;;24.02;12.82;;;14.50;77.10;;;;;;5030435;28;20025;-75
2021/05/15 08:33:23;;;;;;;27.75;13.23;;;14.60;76.90;;;;;;5015942;28;20475;-76
2021/05/15 08:35:50;;;;;;;31.70;14.45;;;14.70;76.70;;;;;;5026654;28;20079;-75
2021/05/15 08:38:16;;;;;;;25.65;14.45;;;14.80;76.30;;;;;;5035394;28;20109;-76
2021/05/15 08:40:41;;;;;;;27.73;14.70;;;14.90;76.10;;;;;;5033645;28;20442;-75
2021/05/15 08:43:08;;;;;;;23.30;12.63;;;14.90;75.50;;;;;;5033831;28;20053;-75
2021/05/15 08:45:34;;;;;;;25.05;13.98;;;14.90;75.20;;;;;;5034347;28;20462;-76
2021/05/15 08:48:02;;;;;;;25.52;14.35;;;14.80;75.00;;;;;;5034759;28;20056;-75
2021/05/15 08:50:30;;;;;;;25.58;13.48;;;14.90;74.40;;;;;;5035082;28;20030;-74
2021/05/15 08:52:57;;;;;;;24.50;13.35;;;14.90;74.20;;;;;;5034334;28;20506;-75
2021/05/15 08:55:27;;;;;;;23.88;12.57;;;15.00;73.70;;;;;;5034481;28;20022;-75
2021/05/15 08:57:54;;;;;;;23.13;11.50;;;15.10;73.10;;;;;;5034796;28;20021;-76
2021/05/15 09:00:32;;;;;;;25.42;11.52;;;15.10;72.80;;;;;;5033697;28;20026;-75
2021/05/15 09:03:08;;;;;;;24.13;13.15;;;15.20;72.50;;;;;;5029737;28;20133;-75
2021/05/15 09:05:36;;;;;;;25.15;13.20;;;15.40;72.20;;;;;;5025689;28;20085;-75
2021/05/15 09:08:06;;;;;;;20.27;11.07;;;15.40;71.80;;;;;;5034240;28;20160;-75
2021/05/15 09:10:34;;;;;;;20.33;11.52;;;15.40;71.10;;;;;;5032395;28;20116;-75
2021/05/15 09:13:15;;;;;;;30.77;15.93;;;15.20;70.20;;;;;;5032385;28;20029;-74
2021/05/15 09:15:44;;;;;;;23.63;12.60;;;15.20;71.20;;;;;;5033233;28;20053;-76
2021/05/15 09:18:12;;;;;;;20.85;11.25;;;15.10;70.60;;;;;;5033937;28;20025;-75
2021/05/15 09:20:38;;;;;;;24.25;11.48;;;15.10;70.80;;;;;;5030427;28;20028;-76
2021/05/15 09:23:25;;;;;;;23.08;10.68;;;15.10;70.80;;;;;;5029664;28;20038;-75
2021/05/15 09:26:15;;;;;;;17.75;10.15;;;15.10;70.90;;;;;;5033156;28;20100;-76
2021/05/15 09:28:49;;;;;;;22.45;11.02;;;15.20;70.90;;;;;;5033029;28;20021;-75
2021/05/15 09:31:17;;;;;;;23.42;12.40;;;15.20;70.80;;;;;;5031853;28;20042;-75
2021/05/15 09:33:46;;;;;;;21.00;10.63;;;15.10;70.80;;;;;;5032915;28;20026;-75
2021/05/15 09:36:13;;;;;;;19.55;10.25;;;15.10;71.10;;;;;;5027354;28;20797;-75
2021/05/15 09:38:39;;;;;;;17.08;9.00;;;15.20;71.00;;;;;;5047405;28;20429;-76
2021/05/15 09:41:05;;;;;;;18.75;10.75;;;15.20;70.80;;;;;;5033315;28;20025;-76
2021/05/15 09:43:30;;;;;;;20.42;10.20;;;15.30;71.00;;;;;;5034289;28;20115;-76
2021/05/15 09:45:56;;;;;;;20.77;11.18;;;15.30;71.00;;;;;;5034085;28;20025;-75
2021/05/15 09:48:37;;;;;;;26.00;12.15;;;15.40;70.90;;;;;;5029558;28;20458;-74
2021/05/15 09:51:15;;;;;;;23.15;12.95;;;15.40;70.20;;;;;;5013611;28;20022;-74
2021/05/15 09:53:41;;;;;;;21.92;13.02;;;15.50;70.10;;;;;;5021422;28;20067;-75
2021/05/15 09:56:06;;;;;;;21.00;11.75;;;15.50;70.30;;;;;;5033628;28;20029;-75
2021/05/15 09:58:32;;;;;;;21.98;11.95;;;15.50;70.30;;;;;;5033132;28;20022;-76
2021/05/15 10:00:58;;;;;;;20.60;11.82;;;15.60;70.10;;;;;;5031737;28;20049;-75
2021/05/15 10:03:29;;;;;;;22.20;13.07;;;15.70;70.00;;;;;;5033805;28;20026;-76
2021/05/15 10:06:06;;;;;;;28.70;13.98;;;15.70;69.60;;;;;;5032817;28;20041;-75
2021/05/15 10:08:34;;;;;;;23.30;11.63;;;15.60;69.50;;;;;;5029481;28;20084;-75
2021/05/15 10:11:03;;;;;;;18.08;10.55;;;15.50;69.60;;;;;;5013357;28;20024;-75
2021/05/15 10:13:29;;;;;;;22.30;12.20;;;15.60;70.00;;;;;;5013863;28;20033;-75
2021/05/15 10:15:54;;;;;;;22.75;11.50;;;15.70;70.20;;;;;;5029057;28;20120;-75
2021/05/15 10:18:20;;;;;;;19.92;11.30;;;15.70;70.00;;;;;;5033233;28;20052;-75
2021/05/15 10:20:47;;;;;;;21.83;11.35;;;15.80;69.70;;;;;;5033758;28;20033;-75
2021/05/15 10:23:18;;;;;;;18.50;9.70;;;15.90;69.40;;;;;;5032843;28;20064;-75
2021/05/15 10:25:44;;;;;;;18.52;7.95;;;15.90;69.30;;;;;;5033570;28;20036;-74
2021/05/15 10:28:10;;;;;;;20.48;10.88;;;16.00;69.40;;;;;;5033071;28;20022;-72
2021/05/15 10:30:36;;;;;;;19.77;11.40;;;16.10;68.70;;;;;;5033616;28;20030;-74
2021/05/15 10:33:09;;;;;;;17.98;9.20;;;16.20;68.20;;;;;;5032952;28;20095;-74
2021/05/15 10:35:43;;;;;;;17.98;10.30;;;16.30;67.70;;;;;;5033671;28;20080;-71
2021/05/15 10:38:13;;;;;;;20.92;11.05;;;16.40;67.60;;;;;;5033003;28;20060;-74
2021/05/15 10:41:09;;;;;;;17.98;9.82;;;16.40;67.60;;;;;;5033375;28;20473;-74
2021/05/15 10:43:37;;;;;;;19.27;9.73;;;16.50;67.00;;;;;;5033409;28;20504;-74
2021/05/15 10:46:25;;;;;;;24.27;13.05;;;16.50;66.80;;;;;;5032807;28;20108;-73
2021/05/15 10:49:09;;;;;;;19.92;9.77;;;16.60;66.00;;;;;;5031376;28;20064;-74
2021/05/15 10:51:34;;;;;;;19.45;9.50;;;16.70;65.00;;;;;;5032131;28;20022;-75
2021/05/15 10:54:01;;;;;;;18.00;9.00;;;16.60;65.20;;;;;;5031790;28;20420;-73
2021/05/15 10:56:31;;;;;;;15.70;8.80;;;16.60;65.00;;;;;;5032807;28;20033;-75
2021/05/15 10:59:18;;;;;;;17.90;9.13;;;16.60;65.00;;;;;;5033040;28;20048;-75
2021/05/15 11:01:51;;;;;;;16.17;8.18;;;16.60;65.10;;;;;;5033242;28;20018;-73
2021/05/15 11:04:26;;;;;;;17.63;9.50;;;16.70;65.80;;;;;;5032372;28;20021;-73
2021/05/15 11:07:01;;;;;;;13.88;7.28;;;16.80;65.80;;;;;;5033027;28;20023;-74
2021/05/15 11:09:27;;;;;;;15.98;7.30;;;16.90;65.90;;;;;;5032231;28;20124;-74
2021/05/15 11:12:03;;;;;;;12.82;7.60;;;16.90;65.50;;;;;;5032793;28;20100;-73
2021/05/15 11:14:33;;;;;;;16.13;8.52;;;17.00;64.70;;;;;;5032705;28;20113;-74
2021/05/15 11:17:18;;;;;;;16.17;7.45;;;17.00;64.30;;;;;;5031515;28;20044;-75
2021/05/15 11:19:51;;;;;;;20.00;9.65;;;17.00;64.40;;;;;;5032937;28;20053;-74
2021/05/15 11:22:17;;;;;;;18.13;9.57;;;17.10;64.30;;;;;;5030430;28;20025;-74
2021/05/15 11:24:51;;;;;;;15.00;8.90;;;17.10;64.00;;;;;;5032427;28;20056;-74
2021/05/15 11:27:19;;;;;;;16.35;8.80;;;17.20;63.40;;;;;;5031976;28;20018;-74
2021/05/15 11:29:45;;;;;;;15.68;8.82;;;17.20;63.10;;;;;;5032653;28;20025;-74
2021/05/15 11:32:13;;;;;;;14.77;7.88;;;17.10;63.50;;;;;;5031798;28;20076;-74
2021/05/15 11:34:39;;;;;;;19.00;9.75;;;17.20;64.00;;;;;;5032358;28;20084;-75
2021/05/15 11:37:08;;;;;;;19.35;9.70;;;17.30;64.10;;;;;;5032359;28;20104;-74
2021/05/15 11:39:34;;;;;;;17.58;9.02;;;17.40;63.80;;;;;;5032458;28;20052;-75
2021/05/15 11:42:11;;;;;;;19.25;10.35;;;17.60;63.50;;;;;;5031994;28;20362;-74
2021/05/15 11:44:41;;;;;;;15.38;8.27;;;17.80;63.00;;;;;;5032269;28;20029;-76
2021/05/15 11:47:10;;;;;;;15.93;8.52;;;17.90;62.80;;;;;;5031565;28;20125;-75
2021/05/15 11:49:37;;;;;;;17.15;9.23;;;18.00;62.70;;;;;;5032058;28;20373;-75
2021/05/15 11:52:07;;;;;;;17.33;9.75;;;18.00;61.80;;;;;;5032297;28;20402;-75
2021/05/15 11:54:34;;;;;;;12.70;7.43;;;18.00;62.50;;;;;;5030968;28;20530;-75
2021/05/15 11:57:01;;;;;;;13.38;7.53;;;18.00;62.80;;;;;;5030672;28;20604;-74
2021/05/15 11:59:29;;;;;;;18.42;9.57;;;18.00;63.20;;;;;;5030134;28;20284;-75
2021/05/15 12:01:55;;;;;;;19.48;9.75;;;17.80;63.20;;;;;;5030781;28;20027;-76
2021/05/15 12:06:54;;;;;;;18.40;8.85;;;17.50;64.20;;;;;;5032585;28;20027;-74
2021/05/15 12:09:21;;;;;;;31.83;9.02;;;17.00;71.40;;;;;;5030104;28;20021;-74
2021/05/15 12:11:47;;;;;;;27.77;8.20;;;16.00;78.40;;;;;;5030967;28;20030;-74
2021/05/15 12:14:16;;;;;;;18.25;6.57;;;15.40;81.90;;;;;;5030242;28;20053;-73
2021/05/15 12:16:42;;;;;;;8.82;4.43;;;15.00;84.80;;;;;;5030722;28;20021;-73
2021/05/15 12:19:18;;;;;;;7.75;3.53;;;14.60;87.10;;;;;;5032059;28;20496;-74
2021/05/15 12:22:13;;;;;;;5.90;2.80;;;14.20;89.90;;;;;;5031696;28;20462;-74
2021/05/15 12:24:43;;;;;;;4.75;2.35;;;13.90;90.20;;;;;;5031837;28;20037;-74
2021/05/15 12:27:19;;;;;;;5.07;2.22;;;13.80;90.20;;;;;;5031667;28;20552;-75
2021/05/15 12:29:45;;;;;;;4.15;1.83;;;13.80;90.40;;;;;;5030417;28;20032;-75
2021/05/15 12:32:12;;;;;;;4.15;1.60;;;13.90;90.30;;;;;;5031199;28;20022;-75
2021/05/15 12:34:38;;;;;;;4.75;1.70;;;14.00;90.40;;;;;;5031563;28;20033;-75
2021/05/15 12:37:18;;;;;;;3.05;1.60;;;14.00;90.60;;;;;;5032005;28;20028;-77